TimeAEST,TemperatureF,Dew PointF,Humidity,Sea Level PressureIn,VisibilityMPH,Wind Direction,Wind SpeedMPH,Gust SpeedMPH,PrecipitationIn,Events,Conditions,WindDirDegrees,DateUTC
12:00 AM,83,66,48,29.56,,WNW,8.1,,,,,300,2013-01-25 14:00:00
12:00 AM,82.4,66.2,58,29.56,-9999.0,WNW,8.1,-,N/A,,Clear,300,2013-01-25 14:00:00
12:30 AM,84.2,66.2,55,29.53,-9999.0,WNW,10.4,21.9,N/A,,Clear,290,2013-01-25 14:30:00
1:00 AM,82,67,52,29.54,,North,6.9,,,,,10,2013-01-25 15:00:00
1:00 AM,82.4,68.0,62,29.53,-9999.0,North,6.9,-,N/A,,Clear,10,2013-01-25 15:00:00
1:30 AM,84.2,66.2,55,29.50,-9999.0,NNW,8.1,-,N/A,,Clear,340,2013-01-25 15:30:00
2:00 AM,82.4,68.0,62,29.50,-9999.0,NNW,8.1,-,N/A,,Clear,330,2013-01-25 16:00:00
2:30 AM,82.4,68.0,62,29.50,-9999.0,North,9.2,-,N/A,,Clear,350,2013-01-25 16:30:00
3:00 AM,82,67,52,29.52,,NW,5.8,,,,,310,2013-01-25 17:00:00
3:00 AM,82.4,68.0,62,29.50,-9999.0,NW,5.8,-,N/A,,Clear,310,2013-01-25 17:00:00
3:30 AM,82.4,68.0,62,29.50,-9999.0,WNW,9.2,-,N/A,,Clear,300,2013-01-25 17:30:00
4:00 AM,83,67,48,29.53,,West,9.2,,,,,280,2013-01-25 18:00:00
4:00 AM,82.4,66.2,58,29.50,-9999.0,West,9.2,-,N/A,,Clear,280,2013-01-25 18:00:00
4:30 AM,84.2,66.2,55,29.50,-9999.0,NNW,8.1,-,N/A,,Clear,340,2013-01-25 18:30:00
5:00 AM,82.4,68.0,62,29.53,-9999.0,North,9.2,-,N/A,,Clear,10,2013-01-25 19:00:00
5:30 AM,82.4,68.0,62,29.53,-9999.0,NE,8.1,-,N/A,,Clear,40,2013-01-25 19:30:00
6:00 AM,83,69,53,29.54,16,North,15.0,,,,Partly Cloudy,350,2013-01-25 20:00:00
6:00 AM,84.2,68.0,58,29.53,6.2,North,15.0,-,N/A,,Scattered Clouds,350,2013-01-25 20:00:00
6:30 AM,82.4,69.8,66,29.53,6.2,NNE,8.1,-,N/A,,Mostly Cloudy,30,2013-01-25 20:30:00
7:00 AM,83,69,55,29.57,,North,10.4,,,,,10,2013-01-25 21:00:00
7:00 AM,82.4,69.8,66,29.56,6.2,North,10.4,-,N/A,,Mostly Cloudy,10,2013-01-25 21:00:00
7:30 AM,84.2,69.8,62,29.56,6.2,NNW,11.5,-,N/A,,Mostly Cloudy,330,2013-01-25 21:30:00
8:00 AM,84.2,69.8,62,29.59,6.2,NNW,6.9,-,N/A,,Mostly Cloudy,340,2013-01-25 22:00:00
8:30 AM,86.0,69.8,58,29.59,6.2,WSW,10.4,-,N/A,,Mostly Cloudy,250,2013-01-25 22:30:00
9:00 AM,86,71,52,29.61,12,SSE,8.1,,,,Partly Cloudy,160,2013-01-25 23:00:00
9:00 AM,86.0,71.6,62,29.59,6.2,SSE,8.1,-,N/A,,Mostly Cloudy,160,2013-01-25 23:00:00
9:30 AM,86.0,69.8,58,29.59,6.2,SW,8.1,-,N/A,,Mostly Cloudy,230,2013-01-25 23:30:00
10:00 AM,85,71,53,29.60,,West,6.9,,,,,260,2013-01-26 00:00:00
10:00 AM,86.0,69.8,58,29.59,6.2,West,6.9,-,N/A,,Mostly Cloudy,260,2013-01-26 00:00:00
10:30 AM,86.0,71.6,62,29.56,6.2,WNW,8.1,-,N/A,,Mostly Cloudy,290,2013-01-26 00:30:00
11:00 AM,84.2,71.6,66,29.53,6.2,WNW,11.5,-,N/A,,Mostly Cloudy,300,2013-01-26 01:00:00
11:30 AM,87.8,73.4,62,29.53,6.2,NW,13.8,-,N/A,,Mostly Cloudy,310,2013-01-26 01:30:00
12:00 PM,90,73,48,29.52,19,West,13.8,,,,Partly Cloudy,280,2013-01-26 02:00:00
12:00 PM,89.6,73.4,59,29.50,6.2,West,13.8,-,N/A,,Scattered Clouds,280,2013-01-26 02:00:00
12:30 PM,91.4,71.6,52,29.47,-9999.0,West,13.8,-,N/A,,Clear,270,2013-01-26 02:30:00
1:00 PM,94,73,41,29.49,,WNW,10.4,,,,,290,2013-01-26 03:00:00
1:00 PM,93.2,73.4,52,29.47,-9999.0,WNW,10.4,-,N/A,,Clear,290,2013-01-26 03:00:00
1:30 PM,95.0,69.8,44,29.47,6.2,West,10.4,-,N/A,,Scattered Clouds,280,2013-01-26 03:30:00
2:00 PM,96.8,71.6,44,29.47,6.2,West,13.8,-,N/A,,Scattered Clouds,260,2013-01-26 04:00:00
2:30 PM,96.8,75.2,50,29.44,6.2,WNW,8.1,-,N/A,,Scattered Clouds,300,2013-01-26 04:30:00
3:00 PM,89,79,65,29.47,19,North,12.7,,,,Partly Cloudy,10,2013-01-26 05:00:00
3:00 PM,89.6,78.8,70,29.44,6.2,North,12.7,-,N/A,,Mostly Cloudy,10,2013-01-26 05:00:00
3:30 PM,89.6,78.8,70,29.44,6.2,North,8.1,-,N/A,,Mostly Cloudy,350,2013-01-26 05:30:00
4:00 PM,89,77,61,29.47,,NNE,6.9,,,,,20,2013-01-26 06:00:00
4:00 PM,89.6,77.0,66,29.44,6.2,NNE,6.9,-,N/A,,Mostly Cloudy,20,2013-01-26 06:00:00
4:30 PM,89.6,78.8,70,29.44,6.2,North,13.8,-,N/A,,Mostly Cloudy,360,2013-01-26 06:30:00
5:00 PM,89.6,77.0,66,29.44,6.2,WNW,5.8,-,N/A,,Mostly Cloudy,300,2013-01-26 07:00:00
5:30 PM,91.4,69.8,49,29.47,6.2,West,9.2,-,N/A,,Mostly Cloudy,270,2013-01-26 07:30:00
6:00 PM,89,78,62,29.48,19,North,9.2,,,,Partly Cloudy,10,2013-01-26 08:00:00
6:00 PM,89.6,77.0,66,29.47,-9999.0,North,9.2,-,N/A,,Clear,10,2013-01-26 08:00:00
6:30 PM,87.8,77.0,70,29.47,-9999.0,North,9.2,-,N/A,,Clear,10,2013-01-26 08:30:00
7:00 PM,88,76,59,29.51,,West,1.2,,,,,260,2013-01-26 09:00:00
7:00 PM,87.8,75.2,66,29.50,-9999.0,West,1.2,-,N/A,,Clear,260,2013-01-26 09:00:00
7:30 PM,86.0,77.0,74,29.50,-9999.0,NW,3.5,-,N/A,,Clear,320,2013-01-26 09:30:00
8:00 PM,87.8,71.6,58,29.50,-9999.0,WNW,6.9,-,N/A,,Clear,290,2013-01-26 10:00:00
8:30 PM,87.8,71.6,58,29.53,-9999.0,NW,8.1,-,N/A,,Clear,310,2013-01-26 10:30:00
9:00 PM,88,72,49,29.55,19,NW,8.1,,,,Partly Cloudy,320,2013-01-26 11:00:00
9:00 PM,87.8,71.6,58,29.53,6.2,NW,8.1,-,N/A,,Partly Cloudy,320,2013-01-26 11:00:00
9:30 PM,86.0,71.6,62,29.53,6.2,NW,8.1,-,N/A,,Partly Cloudy,310,2013-01-26 11:30:00
10:00 PM,87,73,54,29.57,,WNW,8.1,,,,,290,2013-01-26 12:00:00
10:00 PM,87.8,73.4,62,29.56,6.2,WNW,8.1,-,N/A,,Scattered Clouds,290,2013-01-26 12:00:00
10:30 PM,87.8,73.4,62,29.56,6.2,WNW,9.2,-,N/A,,Mostly Cloudy,290,2013-01-26 12:30:00
11:00 PM,87.8,73.4,62,29.56,6.2,West,11.5,-,N/A,,Scattered Clouds,270,2013-01-26 13:00:00
11:30 PM,86.0,73.4,66,29.53,6.2,West,5.8,-,N/A,,Scattered Clouds,280,2013-01-26 13:30:00